createdAt,value
2023-02-04T00:00:57.848Z,0.92
2023-02-04T00:01:59.008Z,1.64
2023-02-04T00:03:00.020Z,1.55
2023-02-04T00:04:01.009Z,1.37
2023-02-04T00:05:02.038Z,0.14
2023-02-04T00:06:03.095Z,0.74
2023-02-04T00:07:03.987Z,0.62
2023-02-04T00:08:05.017Z,0.22
2023-02-04T00:09:05.955Z,0.36
2023-02-04T00:10:06.932Z,0.32
2023-02-04T00:11:07.991Z,0.89
2023-02-04T00:12:08.893Z,0.7
2023-02-04T00:13:09.869Z,1.79
2023-02-04T00:14:11.101Z,2.39
2023-02-04T00:15:12.022Z,2.11
2023-02-04T00:16:12.849Z,1.75
2023-02-04T00:17:13.931Z,2.91
2023-02-04T00:18:14.974Z,1.73
2023-02-04T00:19:15.821Z,1.2
2023-02-04T00:20:16.836Z,1.42
2023-02-04T00:21:17.881Z,0.84
2023-02-04T00:22:18.814Z,2.24
2023-02-04T00:23:19.833Z,1.62
2023-02-04T00:24:20.761Z,0.93
2023-02-04T00:25:21.844Z,1.83
2023-02-04T00:26:22.928Z,2.94
2023-02-04T00:27:23.838Z,2.29
2023-02-04T00:28:24.758Z,1.14
2023-02-04T00:29:25.891Z,1.28
2023-02-04T00:30:26.912Z,0.95
2023-02-04T00:31:27.995Z,0.7
2023-02-04T00:32:28.900Z,1.37
2023-02-04T00:33:29.973Z,0.66
2023-02-04T00:34:30.993Z,1.33
2023-02-04T00:35:31.937Z,1.19
2023-02-04T00:36:33.034Z,0.48
2023-02-04T00:37:33.984Z,1.52
2023-02-04T00:38:35.023Z,1.53
2023-02-04T00:39:36.029Z,0.73
2023-02-04T00:40:36.902Z,1.86
2023-02-04T00:41:37.993Z,2.01
2023-02-04T00:42:38.943Z,0.84
2023-02-04T00:43:39.934Z,0.73
2023-02-04T00:44:41.002Z,1.19
2023-02-04T00:45:42.017Z,1.73
2023-02-04T00:46:43.073Z,1
2023-02-04T00:47:43.915Z,1.1
2023-02-04T00:48:44.971Z,0.65
2023-02-04T00:49:45.934Z,1.2
2023-02-04T00:50:47.002Z,1.41
2023-02-04T00:51:48.014Z,0.81
2023-02-04T00:52:48.988Z,0.85
2023-02-04T00:53:50.035Z,0.86
2023-02-04T00:54:51.014Z,0.38
2023-02-04T00:55:51.969Z,0.63
2023-02-04T00:56:52.996Z,0.98
2023-02-04T00:57:53.968Z,0.87
2023-02-04T00:58:54.995Z,2.3
2023-02-04T00:59:56.062Z,1.26
2023-02-04T01:00:57.114Z,0.39
2023-02-04T01:01:58.055Z,0.54
2023-02-04T01:02:59.090Z,0.83
2023-02-04T01:04:00.022Z,1.42
2023-02-04T01:05:00.975Z,1.12
2023-02-04T01:06:02.076Z,1.19
2023-02-04T01:07:03.178Z,0.89
2023-02-04T01:08:03.991Z,0.63
2023-02-04T01:09:04.948Z,0.34
2023-02-04T01:10:06.034Z,1.57
2023-02-04T01:11:06.994Z,1.16
2023-02-04T01:12:08.063Z,0.58
2023-02-04T01:13:08.943Z,1.67
2023-02-04T01:14:09.927Z,0.4
2023-02-04T01:15:11.043Z,0.62
2023-02-04T01:16:12.050Z,0.73
2023-02-04T01:17:13.067Z,1.47
2023-02-04T01:18:14.058Z,0.5
2023-02-04T01:19:15.003Z,1.08
2023-02-04T01:20:16.059Z,0.57
2023-02-04T01:21:17.080Z,0.7
2023-02-04T01:22:17.979Z,0.87
2023-02-04T01:23:19.017Z,0.82
2023-02-04T01:24:20.019Z,1.07
2023-02-04T01:25:21.020Z,1.06
2023-02-04T01:26:21.927Z,0.63
2023-02-04T01:27:23.159Z,1.14
2023-02-04T01:28:23.999Z,1.05
2023-02-04T01:29:25.146Z,0.27
2023-02-04T01:30:26.081Z,0.53
2023-02-04T01:31:27.100Z,0.85
2023-02-04T01:32:28.024Z,0.96
2023-02-04T01:33:29.092Z,0.93
2023-02-04T01:34:29.944Z,0.89
2023-02-04T01:35:31.141Z,0.92
2023-02-04T01:36:32.079Z,1.15
2023-02-04T01:37:33.048Z,0.6
2023-02-04T01:38:34.043Z,1.19
2023-02-04T01:39:35.049Z,0.42
2023-02-04T01:40:36.061Z,0.42
2023-02-04T01:41:37.134Z,1.01
2023-02-04T01:42:37.999Z,0.63
2023-02-04T01:43:39.067Z,0.59
2023-02-04T01:44:40.008Z,0.18
2023-02-04T01:45:41.087Z,1.21
2023-02-04T01:46:42.053Z,0.54
2023-02-04T01:47:43.164Z,0.68
2023-02-04T01:48:44.020Z,0.32
2023-02-04T01:49:45.039Z,0.68
2023-02-04T01:50:46.020Z,0.27
2023-02-04T01:51:47.062Z,0.15
2023-02-04T01:52:48.088Z,0.25
2023-02-04T01:53:49.142Z,0.19
2023-02-04T01:54:49.992Z,0.2
2023-02-04T01:55:51.199Z,0.35
2023-02-04T01:56:52.040Z,0.25
2023-02-04T01:57:53.065Z,0.68
2023-02-04T01:58:54.012Z,0.4
2023-02-04T01:59:55.030Z,0.39
2023-02-04T02:00:56.135Z,0.36
2023-02-04T02:01:57.211Z,0.29
2023-02-04T02:02:58.149Z,0.27
2023-02-04T02:06:03.052Z,0.19
2023-02-04T02:07:04.028Z,0.23
2023-02-04T02:08:04.955Z,0.35
2023-02-04T02:09:06.046Z,0.13
2023-02-04T02:10:06.936Z,0.2
2023-02-04T02:11:08.036Z,0.48
2023-02-04T02:12:08.957Z,0.29
2023-02-04T02:13:10.014Z,0.36
2023-02-04T02:14:11.037Z,0.4
2023-02-04T02:15:12.016Z,0.21
2023-02-04T02:16:13.165Z,0.14
2023-02-04T02:17:14.083Z,0.24
2023-02-04T02:18:15.059Z,0.59
2023-02-04T02:19:15.962Z,0.43
2023-02-04T02:20:17.015Z,0.09
2023-02-04T02:21:18.135Z,0.28
2023-02-04T02:22:19.056Z,0.35
2023-02-04T02:23:20.037Z,0.35
2023-02-04T02:24:20.964Z,0.19
2023-02-04T02:25:21.938Z,0.19
2023-02-04T02:26:23.201Z,0.24
2023-02-04T02:27:23.975Z,0.32
2023-02-04T02:28:25.034Z,0.29
2023-02-04T02:29:26.055Z,0.62
2023-02-04T02:30:27.075Z,0.17
2023-02-04T02:31:28.112Z,0.26
2023-02-04T02:32:29.076Z,0.54
2023-02-04T02:33:30.039Z,0.37
2023-02-04T02:34:31.064Z,0.33
2023-02-04T02:35:32.043Z,0.28
2023-02-04T02:36:32.992Z,0.26
2023-02-04T02:37:33.920Z,0.36
2023-02-04T02:38:35.119Z,0.49
2023-02-04T02:39:36.083Z,0.24
2023-02-04T02:40:37.136Z,0.4
2023-02-04T02:41:38.024Z,0.18
2023-02-04T02:42:39.043Z,0.15
2023-02-04T02:43:40.098Z,0.21
2023-02-04T02:44:41.103Z,0.35
2023-02-04T02:45:42.238Z,0.46
2023-02-04T02:46:43.076Z,0.3
2023-02-04T02:47:44.301Z,0.54
2023-02-04T02:48:46.005Z,0.35
2023-02-04T02:49:47.073Z,0.36
2023-02-04T02:50:48.084Z,0.43
2023-02-04T02:51:49.046Z,0.29
2023-02-04T02:52:49.992Z,0.22
2023-02-04T02:53:51.170Z,0.17
2023-02-04T02:54:51.992Z,0.48
2023-02-04T02:55:53.119Z,0.08
2023-02-04T02:56:54.011Z,0.53
2023-02-04T02:57:55.078Z,0.36
2023-02-04T02:58:56.111Z,0.35
2023-02-04T02:59:57.131Z,0.32
2023-02-04T03:00:58.097Z,0.13
2023-02-04T03:01:59.050Z,0.44
2023-02-04T03:03:00.121Z,0.29
2023-02-04T03:04:00.885Z,0.21
2023-02-04T03:05:01.979Z,0.78
2023-02-04T03:06:02.918Z,0.37
2023-02-04T03:07:03.929Z,0.45
2023-02-04T03:08:04.910Z,0.2
2023-02-04T03:09:05.888Z,0.23
2023-02-04T03:10:06.948Z,0.11
2023-02-04T03:11:07.932Z,0.27
2023-02-04T03:12:09.033Z,0.31
2023-02-04T03:13:09.928Z,0.26
2023-02-04T03:14:10.916Z,0.47
2023-02-04T03:15:11.928Z,0.57
2023-02-04T03:16:13.048Z,0.14
2023-02-04T03:17:14.048Z,0.26
2023-02-04T03:18:15.137Z,0.27
2023-02-04T03:19:16.117Z,0.29
2023-02-04T03:20:17.018Z,0.25
2023-02-04T03:21:17.914Z,0.19
2023-02-04T03:22:18.827Z,0.8
2023-02-04T03:23:20.021Z,0.26
2023-02-04T03:24:20.999Z,0.13
2023-02-04T03:25:21.883Z,0.13
2023-02-04T03:26:23.552Z,0.44
2023-02-04T03:27:25.117Z,0.39
2023-02-04T03:28:26.132Z,0.13
2023-02-04T03:29:28.912Z,0.56
2023-02-04T03:30:27.971Z,0.21
2023-02-04T03:31:29.115Z,0.38
2023-02-04T03:32:29.922Z,0.3
2023-02-04T03:33:30.901Z,0.16
2023-02-04T03:34:31.978Z,0.18
2023-02-04T03:35:32.918Z,0.27
2023-02-04T03:36:34.070Z,0.35
2023-02-04T03:37:35.123Z,0.15
2023-02-04T03:38:35.933Z,0.25
2023-02-04T03:39:36.939Z,0.25
2023-02-04T03:40:38.154Z,0.38
2023-02-04T03:41:39.053Z,0
2023-02-04T03:42:40.129Z,0.13
2023-02-04T03:43:41.076Z,0.2
2023-02-04T03:44:42.062Z,0.34
2023-02-04T03:45:45.418Z,0
2023-02-04T03:46:44.082Z,0.2
2023-02-04T03:47:45.078Z,0.12
2023-02-04T03:48:46.107Z,0.47
2023-02-04T03:49:47.040Z,0
2023-02-04T03:50:48.122Z,0.2
2023-02-04T03:51:48.962Z,0.11
2023-02-04T03:52:49.995Z,0.16
2023-02-04T03:53:50.978Z,0.05
2023-02-04T03:54:51.988Z,0.24
2023-02-04T03:55:52.934Z,0
2023-02-04T03:56:54.055Z,0.57
2023-02-04T03:57:54.996Z,0.2
2023-02-04T03:58:55.976Z,0.49
2023-02-04T03:59:56.943Z,0.28
2023-02-04T04:00:58.018Z,0
2023-02-04T04:01:59.131Z,0
2023-02-04T04:03:00.217Z,0.21
2023-02-04T04:04:01.085Z,0.25
2023-02-04T04:05:02.078Z,0
2023-02-04T04:06:02.887Z,0
2023-02-04T04:07:03.928Z,0.4
2023-02-04T04:08:04.949Z,0.16
2023-02-04T04:09:05.898Z,0.1
2023-02-04T04:10:06.996Z,0.05
2023-02-04T04:11:08.081Z,0.23
2023-02-04T04:12:09.035Z,0.06
2023-02-04T04:13:10.037Z,0.06
2023-02-04T04:14:11.096Z,0.27
2023-02-04T04:15:12.119Z,0
2023-02-04T04:16:13.196Z,0.13
2023-02-04T04:17:13.938Z,0.25
2023-02-04T04:18:15.060Z,0.2
2023-02-04T04:19:16.136Z,0.1
2023-02-04T04:20:17.242Z,0.16
2023-02-04T04:21:18.071Z,0
2023-02-04T04:22:19.026Z,0.05
2023-02-04T04:23:20.164Z,0.15
2023-02-04T04:24:20.986Z,0.25
2023-02-04T04:25:22.023Z,0
2023-02-04T04:26:23.640Z,0.15
2023-02-04T04:27:25.117Z,0.24
2023-02-04T04:28:26.194Z,0.07
2023-02-04T04:29:27.133Z,0.13
2023-02-04T04:30:28.113Z,0.22
2023-02-04T04:31:29.052Z,0.31
2023-02-04T04:32:29.985Z,0.07
2023-02-04T04:33:30.974Z,0.12
2023-02-04T04:34:31.938Z,0.06
2023-02-04T04:35:33.062Z,0.09
2023-02-04T04:36:34.000Z,0.14
2023-02-04T04:37:35.018Z,0.19
2023-02-04T04:38:36.130Z,0.34
2023-02-04T04:39:37.171Z,0.35
2023-02-04T04:40:38.090Z,0.21
2023-02-04T04:41:39.036Z,0.38
2023-02-04T04:42:40.060Z,0.18
2023-02-04T04:43:41.130Z,0.12
2023-02-04T04:44:42.085Z,0.11
2023-02-04T04:45:43.123Z,0.21
2023-02-04T04:46:44.019Z,0.22
2023-02-04T04:47:44.948Z,0.11
2023-02-04T04:48:46.016Z,0.52
2023-02-04T04:49:47.035Z,0.11
2023-02-04T04:50:48.226Z,0.16
2023-02-04T04:51:49.077Z,0.1
2023-02-04T04:52:50.106Z,0.1
2023-02-04T04:53:51.167Z,0
2023-02-04T04:54:51.970Z,0.12
2023-02-04T04:55:52.906Z,0.19
2023-02-04T04:56:53.954Z,0.23
2023-02-04T04:57:54.948Z,0.13
2023-02-04T04:58:55.954Z,0.06
2023-02-04T04:59:57.106Z,0.21
2023-02-04T05:00:58.055Z,0.33
2023-02-04T05:01:58.923Z,0.28
2023-02-04T05:03:00.038Z,0.26
2023-02-04T05:04:00.956Z,0.1
2023-02-04T05:05:02.071Z,0.13
2023-02-04T05:06:03.037Z,0.11
2023-02-04T05:07:04.085Z,0.47
2023-02-04T05:08:05.151Z,0.06
2023-02-04T05:09:06.144Z,0.27
2023-02-04T05:10:07.092Z,0.67
2023-02-04T05:11:08.131Z,0.31
2023-02-04T05:12:09.000Z,0.18
2023-02-04T05:13:10.012Z,0.1
2023-02-04T05:14:11.091Z,0
2023-02-04T05:15:11.957Z,0.28
2023-02-04T05:16:13.045Z,0.27
2023-02-04T05:17:13.972Z,0.12
2023-02-04T05:18:14.981Z,0.15
2023-02-04T05:19:15.993Z,0.09
2023-02-04T05:20:17.004Z,0.36
2023-02-04T05:21:18.145Z,0.28
2023-02-04T05:22:19.124Z,0.95
2023-02-04T05:23:19.960Z,0.11
2023-02-04T05:24:21.053Z,0.23
2023-02-04T05:25:22.033Z,0.22
2023-02-04T05:26:30.120Z,0.22
2023-02-04T05:27:25.122Z,0
2023-02-04T05:28:26.097Z,0
2023-02-04T05:29:27.154Z,0.29
2023-02-04T05:30:28.210Z,0.22
2023-02-04T05:31:29.174Z,0.17
2023-02-04T05:32:30.094Z,0.24
2023-02-04T05:33:31.139Z,0.19
2023-02-04T05:34:32.104Z,0.36
2023-02-04T05:35:33.073Z,0.33
2023-02-04T05:36:34.244Z,0.21
2023-02-04T05:37:35.073Z,0.09
2023-02-04T05:38:36.187Z,0.12
2023-02-04T05:39:37.120Z,0.13
2023-02-04T05:40:38.120Z,0.06
2023-02-04T05:41:39.085Z,0.15
2023-02-04T05:42:40.132Z,0
2023-02-04T05:43:41.040Z,0
2023-02-04T05:44:42.152Z,0.09
2023-02-04T05:45:43.269Z,0.07
2023-02-04T05:46:44.088Z,0.11
2023-02-04T05:47:45.151Z,0
2023-02-04T05:48:46.164Z,0.06
2023-02-04T05:49:47.137Z,0.09
2023-02-04T05:50:48.210Z,0
2023-02-04T05:51:49.164Z,0.28
2023-02-04T05:52:50.230Z,0.13
2023-02-04T05:53:51.162Z,0.1
2023-02-04T05:54:52.158Z,0.22
2023-02-04T05:55:53.132Z,0
2023-02-04T05:56:54.138Z,0
2023-02-04T05:57:55.174Z,0.55
2023-02-04T05:58:56.110Z,0.09
2023-02-04T05:59:57.084Z,0.09
2023-02-04T06:00:58.018Z,0.18
2023-02-04T06:01:58.911Z,0.27
2023-02-04T06:03:00.199Z,0.1
2023-02-04T06:04:01.237Z,0
2023-02-04T06:05:02.152Z,0.07
2023-02-04T06:06:02.973Z,0.11
2023-02-04T06:07:04.151Z,0
2023-02-04T06:08:05.278Z,0.42
2023-02-04T06:09:06.117Z,0
2023-02-04T06:10:07.145Z,0.1
2023-02-04T06:11:08.090Z,0.12
2023-02-04T06:12:08.971Z,0.18
2023-02-04T06:13:10.012Z,0.16
2023-02-04T06:14:11.164Z,0.13
2023-02-04T06:15:12.170Z,0.26
2023-02-04T06:16:14.875Z,0.12
2023-02-04T06:17:14.159Z,0
2023-02-04T06:18:15.191Z,0.07
2023-02-04T06:19:16.152Z,0.2
2023-02-04T06:20:17.169Z,0.09
2023-02-04T06:21:18.054Z,0
2023-02-04T06:22:18.968Z,0
2023-02-04T06:23:20.221Z,0.3
2023-02-04T06:24:21.131Z,0
2023-02-04T06:25:22.117Z,0.66
2023-02-04T06:26:23.037Z,0
2023-02-04T06:27:23.980Z,0.11
2023-02-04T06:28:25.138Z,0.29
2023-02-04T06:29:26.073Z,0.16
2023-02-04T06:30:27.222Z,0.13
2023-02-04T06:31:28.108Z,0
2023-02-04T06:32:29.043Z,0.23
2023-02-04T06:33:30.173Z,0.09
2023-02-04T06:34:31.170Z,0.26
2023-02-04T06:35:32.210Z,0.11
2023-02-04T06:36:33.193Z,0.13
2023-02-04T06:37:34.169Z,0.16
2023-02-04T06:38:35.171Z,0
2023-02-04T06:39:36.180Z,0.53
2023-02-04T06:40:37.221Z,0
2023-02-04T06:41:38.150Z,0.35
2023-02-04T06:42:39.150Z,0.17
2023-02-04T06:43:40.041Z,0.24
2023-02-04T06:44:41.189Z,0.39
2023-02-04T06:45:42.132Z,0
2023-02-04T06:46:43.169Z,0.32
2023-02-04T06:47:44.150Z,0.2
2023-02-04T06:48:45.090Z,0.47
2023-02-04T06:49:46.190Z,0
2023-02-04T06:50:47.143Z,0.64
2023-02-04T06:51:48.030Z,0.23
2023-02-04T06:52:49.015Z,0.1
2023-02-04T06:53:50.070Z,0.27
2023-02-04T06:54:50.990Z,0.36
2023-02-04T06:55:52.173Z,0.08
2023-02-04T06:56:53.169Z,0.4
2023-02-04T06:57:54.108Z,0.28
2023-02-04T06:58:55.037Z,0.18
2023-02-04T06:59:56.089Z,0.51
2023-02-04T07:00:57.233Z,0.37
2023-02-04T07:01:58.200Z,0.21
2023-02-04T07:02:59.140Z,0.04
2023-02-04T07:04:00.117Z,0.11
2023-02-04T07:05:01.131Z,0.15
2023-02-04T07:06:02.139Z,0.35
2023-02-04T07:07:03.057Z,0
2023-02-04T07:08:04.217Z,0.53
2023-02-04T07:09:05.079Z,0
2023-02-04T07:10:06.167Z,0
2023-02-04T07:11:07.291Z,0.19
2023-02-04T07:12:08.197Z,0
2023-02-04T07:13:09.090Z,0.26
2023-02-04T07:14:10.070Z,0.25
2023-02-04T07:15:11.174Z,0.31
2023-02-04T07:16:12.102Z,0
2023-02-04T07:17:13.233Z,0.72
2023-02-04T07:18:14.041Z,0.32
2023-02-04T07:19:15.519Z,0.43
2023-02-04T07:20:17.237Z,0
2023-02-04T07:21:18.139Z,0.09
2023-02-04T07:22:19.084Z,0
2023-02-04T07:23:20.149Z,0
2023-02-04T07:24:21.103Z,0
2023-02-04T07:25:22.076Z,0
2023-02-04T07:26:23.128Z,0
2023-02-04T07:27:24.222Z,0.17
2023-02-04T07:28:25.003Z,0.3
2023-02-04T07:29:26.223Z,0
2023-02-04T07:30:27.175Z,0
2023-02-04T07:31:28.363Z,0
2023-02-04T07:32:30.111Z,0.3
2023-02-04T07:33:31.083Z,0.27
2023-02-04T07:34:32.108Z,0.46
2023-02-04T07:35:33.104Z,0.31
2023-02-04T07:36:34.240Z,0
2023-02-04T07:37:35.066Z,0
2023-02-04T07:38:36.131Z,0.25
2023-02-04T07:39:37.244Z,0.2
2023-02-04T07:40:38.166Z,0.3
2023-02-04T07:41:39.147Z,0
2023-02-04T07:42:40.195Z,0
2023-02-04T07:43:41.147Z,0
2023-02-04T07:44:42.164Z,0.21
2023-02-04T07:45:43.228Z,0.38
2023-02-04T07:46:44.228Z,0
2023-02-04T07:47:45.260Z,0.36
2023-02-04T07:48:46.175Z,0.24
2023-02-04T07:49:47.123Z,0
2023-02-04T07:50:48.200Z,0
2023-02-04T07:51:49.160Z,0
2023-02-04T07:52:50.130Z,0
2023-02-04T07:53:51.185Z,0
2023-02-04T07:54:52.119Z,0
2023-02-04T07:55:53.162Z,0
2023-02-04T07:56:54.180Z,0
2023-02-04T07:57:55.201Z,0
2023-02-04T07:58:56.063Z,0
2023-02-04T07:59:57.313Z,0
2023-02-04T08:00:58.172Z,0
2023-02-04T08:01:59.200Z,0.13
2023-02-04T08:03:00.169Z,0
2023-02-04T08:04:01.240Z,0.12
2023-02-04T08:05:02.056Z,0
2023-02-04T08:06:03.082Z,0
2023-02-04T08:07:04.113Z,0
2023-02-04T08:08:05.169Z,0
2023-02-04T08:09:06.226Z,0
2023-02-04T08:10:07.081Z,0
2023-02-04T08:11:08.096Z,0.25
2023-02-04T08:12:09.080Z,0
2023-02-04T08:13:10.159Z,0
2023-02-04T08:14:11.244Z,0
2023-02-04T08:15:12.176Z,0.14
2023-02-04T08:16:13.285Z,0.05
2023-02-04T08:17:14.116Z,0.24
2023-02-04T08:18:15.035Z,0.15
2023-02-04T08:19:15.984Z,0
2023-02-04T08:20:17.145Z,0
2023-02-04T08:21:19.441Z,0.23
2023-02-04T08:22:19.082Z,0.3
2023-02-04T08:23:20.074Z,0
2023-02-04T08:24:21.157Z,0
2023-02-04T08:25:22.138Z,0.4
2023-02-04T08:26:23.135Z,0
2023-02-04T08:27:24.086Z,0.51
2023-02-04T08:28:25.193Z,0.25
2023-02-04T08:29:26.151Z,0.17
2023-02-04T08:30:27.151Z,0.08
2023-02-04T08:31:28.244Z,0
2023-02-04T08:32:29.238Z,0.13
2023-02-04T08:33:30.133Z,0.1
2023-02-04T08:34:31.211Z,0.23
2023-02-04T08:35:32.251Z,0
2023-02-04T08:36:33.110Z,0.61
2023-02-04T08:37:34.190Z,0
2023-02-04T08:38:35.218Z,0.77
2023-02-04T08:39:36.094Z,0
2023-02-04T08:40:37.252Z,0.22
2023-02-04T08:41:38.193Z,0.08
2023-02-04T08:42:39.254Z,0
2023-02-04T08:43:40.060Z,0
2023-02-04T08:44:41.137Z,0.57
2023-02-04T08:45:42.177Z,0.18
2023-02-04T08:46:43.271Z,0.34
2023-02-04T08:47:44.183Z,0.11
2023-02-04T08:48:45.204Z,0.08
2023-02-04T08:49:46.125Z,0.33
2023-02-04T08:50:47.251Z,0.26
2023-02-04T08:51:48.150Z,0.47
2023-02-04T08:52:49.232Z,0.26
2023-02-04T08:53:50.180Z,0.28
2023-02-04T08:54:51.191Z,0.11
2023-02-04T08:55:52.252Z,0.21
2023-02-04T08:56:53.179Z,0.12
2023-02-04T08:57:54.218Z,0.28
2023-02-04T08:58:55.256Z,0.09
2023-02-04T08:59:56.176Z,0.2
2023-02-04T09:00:57.294Z,1.09
2023-02-04T09:01:58.213Z,0.45
2023-02-04T09:02:59.199Z,0.18
2023-02-04T09:04:00.299Z,0.35
2023-02-04T09:05:01.273Z,0.12
2023-02-04T09:06:02.180Z,0.08
2023-02-04T09:07:03.222Z,0.62
2023-02-04T09:08:04.140Z,0.17
2023-02-04T09:09:05.264Z,0.21
2023-02-04T09:10:06.129Z,0.07
2023-02-04T09:11:07.104Z,0.91
2023-02-04T09:12:08.213Z,0.15
2023-02-04T09:13:09.225Z,0.39
2023-02-04T09:14:10.286Z,0.1
2023-02-04T09:15:11.163Z,0
2023-02-04T09:16:12.309Z,0
2023-02-04T09:17:13.248Z,0
2023-02-04T09:18:14.223Z,0
2023-02-04T09:19:15.226Z,0
2023-02-04T09:20:16.208Z,0.41
2023-02-04T09:21:17.325Z,0.33
2023-02-04T09:22:18.170Z,0
2023-02-04T09:23:19.127Z,0
2023-02-04T09:24:20.227Z,0.12
2023-02-04T09:25:21.268Z,0
2023-02-04T09:26:22.167Z,0
2023-02-04T09:27:23.207Z,0.29
2023-02-04T09:28:24.184Z,0.2
2023-02-04T09:29:25.135Z,0.1
2023-02-04T09:30:26.168Z,0.15
2023-02-04T09:31:27.265Z,0.24
2023-02-04T09:32:28.214Z,0.25
2023-02-04T09:33:29.289Z,0.12
2023-02-04T09:34:30.632Z,0.09
2023-02-04T09:37:38.803Z,0.11
2023-02-04T09:38:43.761Z,0.19
2023-02-04T09:39:44.618Z,0
2023-02-04T09:40:45.777Z,0
2023-02-04T09:41:46.632Z,1.05
2023-02-04T09:42:47.695Z,0.24
2023-02-04T09:43:48.690Z,0.09
2023-02-04T09:44:49.756Z,0.07
2023-02-04T09:45:50.790Z,0.06
2023-02-04T09:48:41.704Z,0.1
2023-02-04T09:49:43.494Z,0.15
2023-02-04T09:50:44.605Z,0
2023-02-04T09:51:45.335Z,0.3
2023-02-04T09:52:46.498Z,0.17
2023-02-04T09:53:47.370Z,0.67
2023-02-04T09:54:48.492Z,0.07
2023-02-04T09:55:49.542Z,0.06
2023-02-04T09:56:50.539Z,0
2023-02-04T09:57:51.465Z,0.05
2023-02-04T09:58:52.423Z,0.09
2023-02-04T09:59:53.458Z,0
2023-02-04T10:00:54.500Z,0.23
2023-02-04T10:01:55.546Z,0
2023-02-04T10:02:56.391Z,0
2023-02-04T10:03:57.726Z,0
2023-02-04T10:04:58.393Z,0
2023-02-04T10:05:59.456Z,0.25
2023-02-04T10:07:00.387Z,0.27
2023-02-04T10:08:02.771Z,0.11
2023-02-04T10:09:04.402Z,0.1
2023-02-04T10:10:05.443Z,0
2023-02-04T10:11:06.446Z,0
2023-02-04T10:12:07.499Z,0
2023-02-04T10:13:08.413Z,0.25
2023-02-04T10:14:09.451Z,0.06
2023-02-04T10:15:10.557Z,0.17
2023-02-04T10:16:11.512Z,0.17
2023-02-04T10:17:12.451Z,0
2023-02-04T10:18:13.357Z,0.29
2023-02-04T10:19:14.347Z,0.11
2023-02-04T10:20:15.499Z,0.42
2023-02-04T10:21:16.426Z,0
2023-02-04T10:22:17.574Z,0
2023-02-04T10:23:18.465Z,0.35
2023-02-04T10:24:19.513Z,0.31
2023-02-04T10:25:20.499Z,0.3
2023-02-04T10:26:21.562Z,0.21
2023-02-04T10:27:22.409Z,0.67
2023-02-04T10:28:24.200Z,0.19
2023-02-04T10:29:25.437Z,0.2
2023-02-04T10:30:26.609Z,0.32
2023-02-04T10:31:27.711Z,0.3
2023-02-04T10:32:28.384Z,0.06
2023-02-04T10:33:29.466Z,0
2023-02-04T10:34:30.497Z,0.18
2023-02-04T10:35:31.557Z,0
2023-02-04T10:36:32.519Z,0.81
2023-02-04T10:37:33.563Z,0
2023-02-04T10:38:34.540Z,0
2023-02-04T10:39:35.515Z,0
2023-02-04T10:40:36.479Z,0.35
2023-02-04T10:41:37.753Z,0
2023-02-04T10:42:38.536Z,0.18
2023-02-04T10:43:39.396Z,0
2023-02-04T10:44:40.336Z,0
2023-02-04T10:45:41.541Z,0.09
2023-02-04T10:46:42.576Z,0
2023-02-04T10:47:43.538Z,0
2023-02-04T10:48:44.478Z,0
2023-02-04T10:49:45.451Z,0
2023-02-04T10:50:46.439Z,0
2023-02-04T10:51:47.502Z,0
2023-02-04T10:52:48.476Z,0
2023-02-04T10:53:49.438Z,0.15
2023-02-04T10:54:50.535Z,0.15
2023-02-04T10:55:51.501Z,0
2023-02-04T10:56:52.549Z,0.58
2023-02-04T10:57:53.460Z,0.37
2023-02-04T10:58:54.490Z,0.1
2023-02-04T10:59:55.476Z,0.25
2023-02-04T11:00:56.561Z,0.21
2023-02-04T11:01:57.729Z,0.45
2023-02-04T11:02:59.643Z,0.12
2023-02-04T11:04:00.552Z,0
2023-02-04T11:05:01.436Z,0.08
2023-02-04T11:06:02.472Z,0.35
2023-02-04T11:07:03.482Z,0
2023-02-04T11:08:04.456Z,0.74
2023-02-04T11:09:05.460Z,0.44
2023-02-04T11:10:06.516Z,0.06
2023-02-04T11:11:07.606Z,0.07
2023-02-04T11:12:08.543Z,0.59
2023-02-04T11:13:09.602Z,0.23
2023-02-04T11:14:10.534Z,0
2023-02-04T11:15:11.391Z,0.75
2023-02-04T11:16:12.606Z,1.03
2023-02-04T11:17:13.501Z,0.7
2023-02-04T11:18:14.478Z,0.37
2023-02-04T11:19:15.504Z,0.24
2023-02-04T11:20:16.669Z,0
2023-02-04T11:21:19.348Z,0.16
2023-02-04T11:22:19.438Z,0.34
2023-02-04T11:23:20.519Z,0.38
2023-02-04T11:24:21.659Z,0.38
2023-02-04T11:25:22.440Z,0.23
2023-02-04T11:26:24.111Z,0.19
2023-02-04T11:27:25.544Z,0.18
2023-02-04T11:28:26.380Z,0.19
2023-02-04T11:29:27.436Z,0.13
2023-02-04T11:30:31.224Z,0.22
2023-02-04T11:31:33.989Z,0.12
2023-02-04T11:32:35.611Z,0.48
2023-02-04T11:33:36.527Z,0.43
2023-02-04T11:34:38.047Z,0.09
2023-02-04T11:35:39.597Z,0.68
2023-02-04T11:36:40.619Z,0.36
2023-02-04T11:37:41.409Z,0.66
2023-02-04T11:38:42.397Z,0.28
2023-02-04T11:39:43.504Z,0.76
2023-02-04T11:40:44.554Z,0.14
2023-02-04T11:41:45.502Z,0.63
2023-02-04T11:42:46.621Z,0.69
2023-02-04T11:43:47.517Z,0.42
2023-02-04T11:44:48.462Z,0.09
2023-02-04T11:45:49.523Z,0
2023-02-04T11:46:50.534Z,0
2023-02-04T11:47:51.557Z,0.51
2023-02-04T11:48:52.601Z,0.37
2023-02-04T11:49:53.493Z,0.14
2023-02-04T11:50:54.553Z,1.48
2023-02-04T11:51:55.518Z,0.07
2023-02-04T11:52:56.515Z,0.25
2023-02-04T11:53:57.719Z,0.32
2023-02-04T11:54:58.504Z,0.23
2023-02-04T11:55:59.505Z,0.19
2023-02-04T11:57:00.518Z,0
2023-02-04T11:58:01.532Z,0.37
2023-02-04T11:59:02.435Z,0.09
2023-02-04T12:00:03.614Z,0
2023-02-04T12:01:04.592Z,0.42
2023-02-04T12:02:05.575Z,0.22
2023-02-04T12:03:06.522Z,0
2023-02-04T12:04:07.485Z,0.43
2023-02-04T12:05:08.396Z,0.81
2023-02-04T12:06:09.428Z,0.26
2023-02-04T12:07:10.439Z,0.37
2023-02-04T12:08:11.873Z,0.35
2023-02-04T12:09:12.545Z,0.54
2023-02-04T12:10:13.686Z,0.14
2023-02-04T12:11:14.547Z,0.27
2023-02-04T12:12:15.580Z,0.35
2023-02-04T12:13:16.582Z,0.23
2023-02-04T12:14:17.799Z,0.1
2023-02-04T12:15:19.658Z,0.34
2023-02-04T12:16:20.559Z,0.21
2023-02-04T12:17:21.641Z,0.52
2023-02-04T12:18:22.479Z,0.21
2023-02-04T12:19:23.558Z,0.69
2023-02-04T12:20:24.851Z,0.32
2023-02-04T12:21:26.534Z,0.32
2023-02-04T12:22:27.605Z,0.56
2023-02-04T12:23:28.452Z,0.25
2023-02-04T12:24:29.498Z,0.3
2023-02-04T12:25:30.845Z,0.09
2023-02-04T12:26:31.549Z,0.36
2023-02-04T12:27:32.597Z,0.21
2023-02-04T12:28:33.590Z,0
2023-02-04T12:29:34.544Z,0.17
2023-02-04T12:30:35.436Z,0.39
2023-02-04T12:31:36.781Z,0.07
2023-02-04T12:32:37.678Z,0.95
2023-02-04T12:33:38.648Z,0.11
2023-02-04T12:34:39.430Z,0.08
2023-02-04T12:35:40.496Z,0.73
2023-02-04T12:36:41.635Z,0
2023-02-04T12:37:42.474Z,0.11
2023-02-04T12:38:43.642Z,0
2023-02-04T12:39:44.576Z,0.09
2023-02-04T12:40:45.634Z,0
2023-02-04T12:41:46.483Z,0
2023-02-04T12:42:47.453Z,0
2023-02-04T12:43:48.773Z,0
2023-02-04T12:44:49.516Z,0
2023-02-04T12:45:50.442Z,0.38
2023-02-04T12:46:51.711Z,0.05
2023-02-04T12:47:52.471Z,0.07
2023-02-04T12:48:53.492Z,0.43
2023-02-04T12:49:54.619Z,0.21
2023-02-04T12:50:55.538Z,0.05
2023-02-04T12:51:56.473Z,0.46
2023-02-04T12:52:57.773Z,0.23
2023-02-04T12:53:59.472Z,0.46
2023-02-04T12:55:01.568Z,0.35
2023-02-04T12:56:02.593Z,0
2023-02-04T12:57:03.490Z,0
2023-02-04T12:58:04.484Z,0.07
2023-02-04T12:59:05.657Z,0
2023-02-04T13:00:06.574Z,0.09
2023-02-04T13:01:07.672Z,0
2023-02-04T13:02:08.574Z,0
2023-02-04T13:03:09.649Z,0.62
2023-02-04T13:04:10.536Z,0
2023-02-04T13:05:11.393Z,0
2023-02-04T13:06:12.411Z,0
2023-02-04T13:07:13.585Z,0
2023-02-04T13:08:14.450Z,0.12
2023-02-04T13:09:15.599Z,0.06
2023-02-04T13:10:16.552Z,0.07
2023-02-04T13:11:20.345Z,0.73
2023-02-04T13:12:19.555Z,0.11
2023-02-04T13:13:20.600Z,0.06
2023-02-04T13:14:21.580Z,0.13
2023-02-04T13:15:22.566Z,0
2023-02-04T13:16:23.452Z,0.33
2023-02-04T13:17:24.462Z,0
2023-02-04T13:18:25.533Z,0
2023-02-04T13:19:26.457Z,0
2023-02-04T13:20:27.593Z,0.2
2023-02-04T13:21:28.393Z,0.15
2023-02-04T13:22:29.520Z,0.05
2023-02-04T13:23:30.574Z,0.91
2023-02-04T13:24:31.565Z,0.17
2023-02-04T13:25:32.791Z,0.09
2023-02-04T13:26:33.544Z,0.5
2023-02-04T13:27:34.541Z,0.97
2023-02-04T13:28:35.671Z,0.3
2023-02-04T13:29:36.673Z,0.16
2023-02-04T13:30:37.855Z,0.19
2023-02-04T13:31:39.620Z,0
2023-02-04T13:32:40.504Z,0
2023-02-04T13:33:41.532Z,0.3
2023-02-04T13:34:42.587Z,0.97
2023-02-04T13:35:44.292Z,0
2023-02-04T13:36:45.612Z,0.34
2023-02-04T13:37:46.513Z,0.3
2023-02-04T13:38:47.514Z,0.21
2023-02-04T13:39:48.637Z,0.12
2023-02-04T13:40:49.595Z,0.38
2023-02-04T13:41:50.521Z,0.37
2023-02-04T13:42:51.552Z,1.23
2023-02-04T13:43:52.615Z,1.29
2023-02-04T13:44:53.553Z,1.13
2023-02-04T13:45:54.601Z,0.15
2023-02-04T13:46:55.562Z,0.34
2023-02-04T13:47:56.468Z,0.85
2023-02-04T13:48:58.880Z,0
2023-02-04T13:50:00.739Z,0
2023-02-04T13:51:01.558Z,0
2023-02-04T13:52:02.790Z,0.42
2023-02-04T13:53:03.575Z,0.09
2023-02-04T13:54:04.599Z,0.07
2023-02-04T13:55:05.659Z,0
2023-02-04T13:56:06.525Z,0
2023-02-04T13:57:07.769Z,0
2023-02-04T13:58:08.760Z,0.13